Terminal Aerodrome Forecast
Issued by NWS

Home | Current Version | Previous Version | Text Only | Print | Product List | Glossary On
Versions: 1 2 3 4 5 6 7 8 9 10 11 12
055
FTUS45 KPSR 071738
TAFBLH
TAF
KBLH 071738Z 0718/0818 VRB03KT P6SM SKC
     FM071900 36012KT P6SM SKC
     FM080400 31005KT P6SM SKC=

USA.gov is the U.S. government's official web portal to all federal, state and local government web resources and services.